sensor_id;sensor_type;location;lat;lon;timestamp;temperature;humidity
8463;DHT22;4268;52.506;13.462;2023-03-20T00:00:27;12.40;99.90
8463;DHT22;4268;52.506;13.462;2023-03-20T00:02:54;12.40;99.90
8463;DHT22;4268;52.506;13.462;2023-03-20T00:05:22;12.40;99.90
8463;DHT22;4268;52.506;13.462;2023-03-20T00:07:49;12.30;99.90
8463;DHT22;4268;52.506;13.462;2023-03-20T00:10:16;12.30;99.90
8463;DHT22;4268;52.506;13.462;2023-03-20T00:12:43;12.40;99.90
8463;DHT22;4268;52.506;13.462;2023-03-20T00:15:30;12.30;99.90
8463;DHT22;4268;52.506;13.462;2023-03-20T00:17:56;12.30;99.90
8463;DHT22;4268;52.506;13.462;2023-03-20T00:20:22;12.20;99.90
8463;DHT22;4268;52.506;13.462;2023-03-20T00:22:48;12.20;99.90
8463;DHT22;4268;52.506;13.462;2023-03-20T00:25:17;12.20;99.90
8463;DHT22;4268;52.506;13.462;2023-03-20T00:27:44;12.20;99.90
8463;DHT22;4268;52.506;13.462;2023-03-20T00:32:45;12.20;99.90
8463;DHT22;4268;52.506;13.462;2023-03-20T00:35:21;12.10;99.90
8463;DHT22;4268;52.506;13.462;2023-03-20T00:37:47;12.10;99.90
8463;DHT22;4268;52.506;13.462;2023-03-20T00:40:13;12.10;99.90
8463;DHT22;4268;52.506;13.462;2023-03-20T00:42:39;12.00;99.90
8463;DHT22;4268;52.506;13.462;2023-03-20T00:45:05;12.00;99.90
8463;DHT22;4268;52.506;13.462;2023-03-20T00:47:37;12.00;99.90
8463;DHT22;4268;52.506;13.462;2023-03-20T00:50:13;11.90;99.90
8463;DHT22;4268;52.506;13.462;2023-03-20T00:52:39;11.90;99.90
8463;DHT22;4268;52.506;13.462;2023-03-20T00:55:05;11.80;99.90
8463;DHT22;4268;52.506;13.462;2023-03-20T00:57:45;11.80;99.90
8463;DHT22;4268;52.506;13.462;2023-03-20T01:02:54;11.70;99.90
8463;DHT22;4268;52.506;13.462;2023-03-20T01:05:20;11.60;99.90
8463;DHT22;4268;52.506;13.462;2023-03-20T01:07:46;11.60;99.90
8463;DHT22;4268;52.506;13.462;2023-03-20T01:10:12;11.50;99.90
8463;DHT22;4268;52.506;13.462;2023-03-20T01:12:39;11.50;99.90
8463;DHT22;4268;52.506;13.462;2023-03-20T01:15:15;11.40;99.90
8463;DHT22;4268;52.506;13.462;2023-03-20T01:17:41;11.40;99.90
8463;DHT22;4268;52.506;13.462;2023-03-20T01:20:15;11.40;99.90
8463;DHT22;4268;52.506;13.462;2023-03-20T01:22:41;11.40;99.90
8463;DHT22;4268;52.506;13.462;2023-03-20T01:25:07;11.30;99.90
8463;DHT22;4268;52.506;13.462;2023-03-20T01:27:32;11.30;99.90
8463;DHT22;4268;52.506;13.462;2023-03-20T01:29:58;11.40;99.90
8463;DHT22;4268;52.506;13.462;2023-03-20T01:32:23;11.30;99.90
8463;DHT22;4268;52.506;13.462;2023-03-20T01:34:49;11.20;99.90
8463;DHT22;4268;52.506;13.462;2023-03-20T01:37:33;11.20;99.90
8463;DHT22;4268;52.506;13.462;2023-03-20T01:39:59;11.20;99.90
8463;DHT22;4268;52.506;13.462;2023-03-20T01:42:24;11.20;99.90
8463;DHT22;4268;52.506;13.462;2023-03-20T01:44:50;11.10;99.90
8463;DHT22;4268;52.506;13.462;2023-03-20T01:47:18;11.10;99.90
8463;DHT22;4268;52.506;13.462;2023-03-20T01:50:18;11.10;99.90
8463;DHT22;4268;52.506;13.462;2023-03-20T01:52:49;11.10;99.90
8463;DHT22;4268;52.506;13.462;2023-03-20T01:55:16;11.00;99.90
8463;DHT22;4268;52.506;13.462;2023-03-20T01:57:41;11.00;99.90
8463;DHT22;4268;52.506;13.462;2023-03-20T02:00:27;11.00;99.90
8463;DHT22;4268;52.506;13.462;2023-03-20T02:02:53;11.00;99.90
8463;DHT22;4268;52.506;13.462;2023-03-20T02:05:21;11.00;99.90
8463;DHT22;4268;52.506;13.462;2023-03-20T02:08:14;11.00;99.90
8463;DHT22;4268;52.506;13.462;2023-03-20T02:10:36;10.90;99.90
8463;DHT22;4268;52.506;13.462;2023-03-20T02:13:02;11.00;99.90
8463;DHT22;4268;52.506;13.462;2023-03-20T02:15:35;11.00;99.90
8463;DHT22;4268;52.506;13.462;2023-03-20T02:18:01;10.90;99.90
8463;DHT22;4268;52.506;13.462;2023-03-20T02:20:44;11.00;99.90
8463;DHT22;4268;52.506;13.462;2023-03-20T02:29:24;11.00;99.90
8463;DHT22;4268;52.506;13.462;2023-03-20T02:32:24;11.00;99.90
8463;DHT22;4268;52.506;13.462;2023-03-20T02:38:03;11.00;99.90
8463;DHT22;4268;52.506;13.462;2023-03-20T02:43:43;11.00;99.90
8463;DHT22;4268;52.506;13.462;2023-03-20T02:46:25;11.00;99.90
8463;DHT22;4268;52.506;13.462;2023-03-20T02:48:57;10.90;99.90
8463;DHT22;4268;52.506;13.462;2023-03-20T02:51:39;10.90;99.90
8463;DHT22;4268;52.506;13.462;2023-03-20T02:54:23;10.90;99.90
8463;DHT22;4268;52.506;13.462;2023-03-20T02:57:17;10.90;99.90
8463;DHT22;4268;52.506;13.462;2023-03-20T03:02:57;11.00;99.90
8463;DHT22;4268;52.506;13.462;2023-03-20T03:05:32;11.00;99.90
8463;DHT22;4268;52.506;13.462;2023-03-20T03:08:00;11.00;99.90
8463;DHT22;4268;52.506;13.462;2023-03-20T03:10:32;11.00;99.90
8463;DHT22;4268;52.506;13.462;2023-03-20T03:13:00;11.10;99.90
8463;DHT22;4268;52.506;13.462;2023-03-20T03:15:33;11.10;99.90
8463;DHT22;4268;52.506;13.462;2023-03-20T03:18:01;11.20;99.90
8463;DHT22;4268;52.506;13.462;2023-03-20T03:20:29;11.10;99.90
8463;DHT22;4268;52.506;13.462;2023-03-20T03:22:57;11.10;99.90
8463;DHT22;4268;52.506;13.462;2023-03-20T03:25:26;11.10;99.90
8463;DHT22;4268;52.506;13.462;2023-03-20T03:28:02;11.20;99.90
8463;DHT22;4268;52.506;13.462;2023-03-20T03:30:31;11.10;99.90
8463;DHT22;4268;52.506;13.462;2023-03-20T03:33:26;11.10;99.90
8463;DHT22;4268;52.506;13.462;2023-03-20T03:36:01;11.20;99.90
8463;DHT22;4268;52.506;13.462;2023-03-20T03:38:50;11.20;99.90
8463;DHT22;4268;52.506;13.462;2023-03-20T03:45:08;11.20;99.90
8463;DHT22;4268;52.506;13.462;2023-03-20T03:47:43;11.20;99.90
8463;DHT22;4268;52.506;13.462;2023-03-20T03:50:37;11.20;99.90
8463;DHT22;4268;52.506;13.462;2023-03-20T03:53:09;11.20;99.90
8463;DHT22;4268;52.506;13.462;2023-03-20T03:55:39;11.20;99.90
8463;DHT22;4268;52.506;13.462;2023-03-20T03:58:21;11.10;99.90
8463;DHT22;4268;52.506;13.462;2023-03-20T04:00:51;11.10;99.90
8463;DHT22;4268;52.506;13.462;2023-03-20T04:03:20;11.20;99.90
8463;DHT22;4268;52.506;13.462;2023-03-20T04:05:50;11.10;99.90
8463;DHT22;4268;52.506;13.462;2023-03-20T04:08:16;11.10;99.90
8463;DHT22;4268;52.506;13.462;2023-03-20T04:10:41;11.10;99.90
8463;DHT22;4268;52.506;13.462;2023-03-20T04:13:07;11.10;99.90
8463;DHT22;4268;52.506;13.462;2023-03-20T04:15:32;11.10;99.90
8463;DHT22;4268;52.506;13.462;2023-03-20T04:17:58;11.10;99.90
8463;DHT22;4268;52.506;13.462;2023-03-20T04:20:24;11.10;99.90
8463;DHT22;4268;52.506;13.462;2023-03-20T04:22:49;11.00;99.90
8463;DHT22;4268;52.506;13.462;2023-03-20T04:25:20;11.00;99.90
8463;DHT22;4268;52.506;13.462;2023-03-20T04:27:47;11.00;99.90
8463;DHT22;4268;52.506;13.462;2023-03-20T04:30:12;11.00;99.90
8463;DHT22;4268;52.506;13.462;2023-03-20T04:32:38;11.10;99.90
8463;DHT22;4268;52.506;13.462;2023-03-20T04:35:04;11.10;99.90
8463;DHT22;4268;52.506;13.462;2023-03-20T04:37:30;11.10;99.90
8463;DHT22;4268;52.506;13.462;2023-03-20T04:39:55;11.00;99.90
8463;DHT22;4268;52.506;13.462;2023-03-20T04:42:21;11.10;99.90
8463;DHT22;4268;52.506;13.462;2023-03-20T04:44:46;11.10;99.90
8463;DHT22;4268;52.506;13.462;2023-03-20T04:47:12;11.10;99.90
8463;DHT22;4268;52.506;13.462;2023-03-20T04:49:37;11.10;99.90
8463;DHT22;4268;52.506;13.462;2023-03-20T04:52:03;11.10;99.90
8463;DHT22;4268;52.506;13.462;2023-03-20T04:54:29;11.00;99.90
8463;DHT22;4268;52.506;13.462;2023-03-20T04:56:54;11.00;99.90
8463;DHT22;4268;52.506;13.462;2023-03-20T04:59:20;11.00;99.90
8463;DHT22;4268;52.506;13.462;2023-03-20T05:01:45;11.00;99.90
8463;DHT22;4268;52.506;13.462;2023-03-20T05:04:11;11.00;99.90
8463;DHT22;4268;52.506;13.462;2023-03-20T05:06:36;11.10;99.90
8463;DHT22;4268;52.506;13.462;2023-03-20T05:09:02;11.10;99.90
8463;DHT22;4268;52.506;13.462;2023-03-20T05:11:28;11.00;99.90
8463;DHT22;4268;52.506;13.462;2023-03-20T05:13:53;11.10;99.90
8463;DHT22;4268;52.506;13.462;2023-03-20T05:16:19;11.10;99.90
8463;DHT22;4268;52.506;13.462;2023-03-20T05:18:45;11.00;99.90
8463;DHT22;4268;52.506;13.462;2023-03-20T05:21:11;11.10;99.90
8463;DHT22;4268;52.506;13.462;2023-03-20T05:23:36;11.10;99.90
8463;DHT22;4268;52.506;13.462;2023-03-20T05:26:02;11.10;99.90
8463;DHT22;4268;52.506;13.462;2023-03-20T05:28:28;11.10;99.90
8463;DHT22;4268;52.506;13.462;2023-03-20T05:30:54;11.10;99.90
8463;DHT22;4268;52.506;13.462;2023-03-20T05:33:19;11.10;99.90
8463;DHT22;4268;52.506;13.462;2023-03-20T05:35:45;11.10;99.90
8463;DHT22;4268;52.506;13.462;2023-03-20T05:38:10;11.10;99.90
8463;DHT22;4268;52.506;13.462;2023-03-20T05:40:36;11.10;99.90
8463;DHT22;4268;52.506;13.462;2023-03-20T05:43:01;11.10;99.90
8463;DHT22;4268;52.506;13.462;2023-03-20T05:45:27;11.20;99.90
8463;DHT22;4268;52.506;13.462;2023-03-20T05:47:52;11.20;99.90
8463;DHT22;4268;52.506;13.462;2023-03-20T05:50:18;11.20;99.90
8463;DHT22;4268;52.506;13.462;2023-03-20T05:52:47;11.20;99.90
8463;DHT22;4268;52.506;13.462;2023-03-20T05:55:13;11.20;99.90
8463;DHT22;4268;52.506;13.462;2023-03-20T05:57:39;11.20;99.90
8463;DHT22;4268;52.506;13.462;2023-03-20T06:00:05;11.20;99.90
8463;DHT22;4268;52.506;13.462;2023-03-20T06:02:31;11.30;99.90
8463;DHT22;4268;52.506;13.462;2023-03-20T06:04:56;11.30;99.90
8463;DHT22;4268;52.506;13.462;2023-03-20T06:07:22;11.30;99.90
8463;DHT22;4268;52.506;13.462;2023-03-20T06:09:48;11.30;99.90
8463;DHT22;4268;52.506;13.462;2023-03-20T06:12:13;11.30;99.90
8463;DHT22;4268;52.506;13.462;2023-03-20T06:14:39;11.30;99.90
8463;DHT22;4268;52.506;13.462;2023-03-20T06:17:05;11.30;99.90
8463;DHT22;4268;52.506;13.462;2023-03-20T06:19:30;11.50;99.90
8463;DHT22;4268;52.506;13.462;2023-03-20T06:21:55;11.30;99.90
8463;DHT22;4268;52.506;13.462;2023-03-20T06:24:21;11.30;99.90
8463;DHT22;4268;52.506;13.462;2023-03-20T06:26:47;11.30;99.90
8463;DHT22;4268;52.506;13.462;2023-03-20T06:29:12;11.40;99.90
8463;DHT22;4268;52.506;13.462;2023-03-20T06:31:38;11.30;99.90
8463;DHT22;4268;52.506;13.462;2023-03-20T06:34:04;11.30;99.90
8463;DHT22;4268;52.506;13.462;2023-03-20T06:36:29;11.30;99.90
8463;DHT22;4268;52.506;13.462;2023-03-20T06:38:55;11.20;99.90
8463;DHT22;4268;52.506;13.462;2023-03-20T06:41:21;11.20;99.90
8463;DHT22;4268;52.506;13.462;2023-03-20T06:43:47;11.20;99.90
8463;DHT22;4268;52.506;13.462;2023-03-20T06:46:13;11.10;99.90
8463;DHT22;4268;52.506;13.462;2023-03-20T06:48:38;11.10;99.90
8463;DHT22;4268;52.506;13.462;2023-03-20T06:51:04;11.00;99.90
8463;DHT22;4268;52.506;13.462;2023-03-20T06:53:30;11.00;99.90
8463;DHT22;4268;52.506;13.462;2023-03-20T06:55:56;10.90;99.90
8463;DHT22;4268;52.506;13.462;2023-03-20T06:58:21;10.90;99.90
8463;DHT22;4268;52.506;13.462;2023-03-20T07:00:47;10.80;99.90
8463;DHT22;4268;52.506;13.462;2023-03-20T07:03:12;10.80;99.90
8463;DHT22;4268;52.506;13.462;2023-03-20T07:05:39;10.70;99.90
8463;DHT22;4268;52.506;13.462;2023-03-20T07:08:05;10.70;99.90
8463;DHT22;4268;52.506;13.462;2023-03-20T07:10:32;10.70;99.90
8463;DHT22;4268;52.506;13.462;2023-03-20T07:12:58;10.70;99.90
8463;DHT22;4268;52.506;13.462;2023-03-20T07:15:24;10.70;99.90
8463;DHT22;4268;52.506;13.462;2023-03-20T07:17:50;10.70;99.90
8463;DHT22;4268;52.506;13.462;2023-03-20T07:20:16;10.60;99.90
8463;DHT22;4268;52.506;13.462;2023-03-20T07:22:42;10.60;99.90
8463;DHT22;4268;52.506;13.462;2023-03-20T07:25:09;10.60;99.90
8463;DHT22;4268;52.506;13.462;2023-03-20T07:27:35;10.60;99.90
8463;DHT22;4268;52.506;13.462;2023-03-20T07:30:01;10.50;99.90
8463;DHT22;4268;52.506;13.462;2023-03-20T07:32:26;10.50;99.90
8463;DHT22;4268;52.506;13.462;2023-03-20T07:34:52;10.50;99.90
8463;DHT22;4268;52.506;13.462;2023-03-20T07:37:17;10.50;99.90
8463;DHT22;4268;52.506;13.462;2023-03-20T07:39:43;10.50;99.90
8463;DHT22;4268;52.506;13.462;2023-03-20T07:42:09;10.50;99.90
8463;DHT22;4268;52.506;13.462;2023-03-20T07:44:34;10.50;99.90
8463;DHT22;4268;52.506;13.462;2023-03-20T07:47:00;10.50;99.90
8463;DHT22;4268;52.506;13.462;2023-03-20T07:49:25;10.40;99.90
8463;DHT22;4268;52.506;13.462;2023-03-20T07:51:51;10.40;99.90
8463;DHT22;4268;52.506;13.462;2023-03-20T07:54:18;10.30;99.90
8463;DHT22;4268;52.506;13.462;2023-03-20T07:56:44;10.30;99.90
8463;DHT22;4268;52.506;13.462;2023-03-20T07:59:11;10.30;99.90
8463;DHT22;4268;52.506;13.462;2023-03-20T08:01:36;10.30;99.90
8463;DHT22;4268;52.506;13.462;2023-03-20T08:04:02;10.30;99.90
8463;DHT22;4268;52.506;13.462;2023-03-20T08:06:27;10.40;99.90
8463;DHT22;4268;52.506;13.462;2023-03-20T08:08:53;11.80;99.90
8463;DHT22;4268;52.506;13.462;2023-03-20T08:11:19;10.40;99.90
8463;DHT22;4268;52.506;13.462;2023-03-20T08:13:45;10.00;99.90
8463;DHT22;4268;52.506;13.462;2023-03-20T08:16:10;11.10;99.90
8463;DHT22;4268;52.506;13.462;2023-03-20T08:18:37;11.50;99.90
8463;DHT22;4268;52.506;13.462;2023-03-20T08:21:03;10.90;99.90
8463;DHT22;4268;52.506;13.462;2023-03-20T08:23:29;11.00;99.90
8463;DHT22;4268;52.506;13.462;2023-03-20T08:25:54;11.10;99.90
8463;DHT22;4268;52.506;13.462;2023-03-20T08:28:20;11.10;99.90
8463;DHT22;4268;52.506;13.462;2023-03-20T08:30:46;11.10;99.90
8463;DHT22;4268;52.506;13.462;2023-03-20T08:33:13;11.10;99.90
8463;DHT22;4268;52.506;13.462;2023-03-20T08:35:39;11.10;99.90
8463;DHT22;4268;52.506;13.462;2023-03-20T08:38:05;11.00;99.90
8463;DHT22;4268;52.506;13.462;2023-03-20T08:40:31;10.90;99.90
8463;DHT22;4268;52.506;13.462;2023-03-20T08:42:57;10.90;99.90
8463;DHT22;4268;52.506;13.462;2023-03-20T08:45:23;10.90;99.90
8463;DHT22;4268;52.506;13.462;2023-03-20T08:47:50;10.90;99.90
8463;DHT22;4268;52.506;13.462;2023-03-20T08:50:16;10.90;99.90
8463;DHT22;4268;52.506;13.462;2023-03-20T08:52:42;11.00;99.90
8463;DHT22;4268;52.506;13.462;2023-03-20T08:55:12;11.20;99.90
8463;DHT22;4268;52.506;13.462;2023-03-20T08:57:39;11.40;99.90
8463;DHT22;4268;52.506;13.462;2023-03-20T09:00:06;11.60;99.90
8463;DHT22;4268;52.506;13.462;2023-03-20T09:02:32;11.90;99.90
8463;DHT22;4268;52.506;13.462;2023-03-20T09:04:57;12.10;99.90
8463;DHT22;4268;52.506;13.462;2023-03-20T09:07:23;12.40;99.90
8463;DHT22;4268;52.506;13.462;2023-03-20T09:09:49;12.60;99.90
8463;DHT22;4268;52.506;13.462;2023-03-20T09:12:14;12.80;99.90
8463;DHT22;4268;52.506;13.462;2023-03-20T09:14:40;12.90;99.90
8463;DHT22;4268;52.506;13.462;2023-03-20T09:17:06;12.90;99.90
8463;DHT22;4268;52.506;13.462;2023-03-20T09:19:31;13.00;99.90
8463;DHT22;4268;52.506;13.462;2023-03-20T09:21:57;13.00;99.90
8463;DHT22;4268;52.506;13.462;2023-03-20T09:24:22;13.00;99.90
8463;DHT22;4268;52.506;13.462;2023-03-20T09:26:48;13.10;99.90
8463;DHT22;4268;52.506;13.462;2023-03-20T09:29:14;13.10;99.90
8463;DHT22;4268;52.506;13.462;2023-03-20T09:31:39;13.10;99.90
8463;DHT22;4268;52.506;13.462;2023-03-20T09:34:05;13.10;99.90
8463;DHT22;4268;52.506;13.462;2023-03-20T09:36:31;13.00;99.90
8463;DHT22;4268;52.506;13.462;2023-03-20T09:38:57;13.00;99.90
8463;DHT22;4268;52.506;13.462;2023-03-20T09:41:24;13.00;99.90
8463;DHT22;4268;52.506;13.462;2023-03-20T09:44:08;13.00;99.90
8463;DHT22;4268;52.506;13.462;2023-03-20T09:51:57;13.20;99.90
8463;DHT22;4268;52.506;13.462;2023-03-20T09:54:27;13.10;99.90
8463;DHT22;4268;52.506;13.462;2023-03-20T09:56:55;13.20;99.90
8463;DHT22;4268;52.506;13.462;2023-03-20T09:59:24;13.20;99.90
8463;DHT22;4268;52.506;13.462;2023-03-20T10:01:56;13.20;99.90
8463;DHT22;4268;52.506;13.462;2023-03-20T10:04:26;13.20;99.90
8463;DHT22;4268;52.506;13.462;2023-03-20T10:06:53;13.20;99.90
8463;DHT22;4268;52.506;13.462;2023-03-20T10:09:25;13.10;99.90
8463;DHT22;4268;52.506;13.462;2023-03-20T10:12:03;13.10;99.90
8463;DHT22;4268;52.506;13.462;2023-03-20T10:14:40;13.10;99.90
8463;DHT22;4268;52.506;13.462;2023-03-20T10:17:28;13.00;99.90
8463;DHT22;4268;52.506;13.462;2023-03-20T10:22:52;12.90;99.90
8463;DHT22;4268;52.506;13.462;2023-03-20T10:25:39;13.00;99.90
8463;DHT22;4268;52.506;13.462;2023-03-20T10:28:16;13.10;99.90
8463;DHT22;4268;52.506;13.462;2023-03-20T10:34:12;13.10;99.90
8463;DHT22;4268;52.506;13.462;2023-03-20T10:39:33;13.10;99.90
8463;DHT22;4268;52.506;13.462;2023-03-20T10:42:03;13.00;99.90
8463;DHT22;4268;52.506;13.462;2023-03-20T10:44:38;12.90;99.90
8463;DHT22;4268;52.506;13.462;2023-03-20T10:47:08;12.90;99.90
8463;DHT22;4268;52.506;13.462;2023-03-20T10:49:50;12.90;99.90
8463;DHT22;4268;52.506;13.462;2023-03-20T10:52:20;12.90;99.90
8463;DHT22;4268;52.506;13.462;2023-03-20T10:54:51;12.90;99.90
8463;DHT22;4268;52.506;13.462;2023-03-20T10:57:24;12.80;99.90
8463;DHT22;4268;52.506;13.462;2023-03-20T10:59:53;12.90;99.90
8463;DHT22;4268;52.506;13.462;2023-03-20T11:02:23;12.90;99.90
8463;DHT22;4268;52.506;13.462;2023-03-20T11:04:49;12.90;99.90
8463;DHT22;4268;52.506;13.462;2023-03-20T11:07:25;12.90;99.90
8463;DHT22;4268;52.506;13.462;2023-03-20T11:12:35;12.80;99.90
8463;DHT22;4268;52.506;13.462;2023-03-20T11:17:40;12.80;99.90
8463;DHT22;4268;52.506;13.462;2023-03-20T11:20:06;12.90;99.90
8463;DHT22;4268;52.506;13.462;2023-03-20T11:22:33;12.80;99.90
8463;DHT22;4268;52.506;13.462;2023-03-20T11:25:02;12.90;99.90
8463;DHT22;4268;52.506;13.462;2023-03-20T11:27:33;13.00;99.90
8463;DHT22;4268;52.506;13.462;2023-03-20T11:30:03;13.10;99.90
8463;DHT22;4268;52.506;13.462;2023-03-20T11:32:45;13.00;99.90
8463;DHT22;4268;52.506;13.462;2023-03-20T11:37:54;13.00;99.90
8463;DHT22;4268;52.506;13.462;2023-03-20T11:40:23;13.10;99.90
8463;DHT22;4268;52.506;13.462;2023-03-20T11:43:13;13.20;99.90
8463;DHT22;4268;52.506;13.462;2023-03-20T11:45:44;13.20;99.90
8463;DHT22;4268;52.506;13.462;2023-03-20T11:51:02;13.30;99.90
8463;DHT22;4268;52.506;13.462;2023-03-20T11:53:31;13.50;99.90
8463;DHT22;4268;52.506;13.462;2023-03-20T11:58:31;13.60;99.90
8463;DHT22;4268;52.506;13.462;2023-03-20T12:00:57;13.70;99.90
8463;DHT22;4268;52.506;13.462;2023-03-20T12:06:17;13.50;99.90
8463;DHT22;4268;52.506;13.462;2023-03-20T12:08:49;13.50;99.90
8463;DHT22;4268;52.506;13.462;2023-03-20T12:13:41;13.30;99.90
8463;DHT22;4268;52.506;13.462;2023-03-20T12:16:15;13.30;99.90
8463;DHT22;4268;52.506;13.462;2023-03-20T12:18:47;13.20;99.90
8463;DHT22;4268;52.506;13.462;2023-03-20T12:21:29;13.10;99.90
8463;DHT22;4268;52.506;13.462;2023-03-20T12:24:07;13.20;99.90
8463;DHT22;4268;52.506;13.462;2023-03-20T12:26:55;13.20;99.90
8463;DHT22;4268;52.506;13.462;2023-03-20T12:29:30;13.10;99.90
8463;DHT22;4268;52.506;13.462;2023-03-20T12:32:15;13.10;99.90
8463;DHT22;4268;52.506;13.462;2023-03-20T12:34:55;13.10;99.90
8463;DHT22;4268;52.506;13.462;2023-03-20T12:37:22;13.20;99.90
8463;DHT22;4268;52.506;13.462;2023-03-20T12:39:53;13.30;99.90
8463;DHT22;4268;52.506;13.462;2023-03-20T12:42:28;13.30;99.90
8463;DHT22;4268;52.506;13.462;2023-03-20T12:45:10;13.30;99.90
8463;DHT22;4268;52.506;13.462;2023-03-20T12:50:32;13.20;99.90
8463;DHT22;4268;52.506;13.462;2023-03-20T12:53:37;13.20;99.90
8463;DHT22;4268;52.506;13.462;2023-03-20T12:56:16;13.10;99.90
8463;DHT22;4268;52.506;13.462;2023-03-20T12:58:50;13.00;99.90
8463;DHT22;4268;52.506;13.462;2023-03-20T13:01:34;13.00;99.90
8463;DHT22;4268;52.506;13.462;2023-03-20T13:12:07;13.10;99.90
8463;DHT22;4268;52.506;13.462;2023-03-20T13:14:52;13.20;99.90
8463;DHT22;4268;52.506;13.462;2023-03-20T13:20:20;13.30;99.90
8463;DHT22;4268;52.506;13.462;2023-03-20T13:26:11;13.20;99.90
8463;DHT22;4268;52.506;13.462;2023-03-20T13:29:02;13.10;99.90
8463;DHT22;4268;52.506;13.462;2023-03-20T13:35:04;13.10;99.90
8463;DHT22;4268;52.506;13.462;2023-03-20T13:37:36;13.10;99.90
8463;DHT22;4268;52.506;13.462;2023-03-20T13:40:10;13.30;99.90
8463;DHT22;4268;52.506;13.462;2023-03-20T13:45:34;13.30;99.90
8463;DHT22;4268;52.506;13.462;2023-03-20T13:48:26;13.30;99.90
8463;DHT22;4268;52.506;13.462;2023-03-20T13:51:27;13.30;99.90
8463;DHT22;4268;52.506;13.462;2023-03-20T13:54:04;13.20;99.90
8463;DHT22;4268;52.506;13.462;2023-03-20T13:56:52;13.20;99.90
8463;DHT22;4268;52.506;13.462;2023-03-20T13:59:32;13.20;99.90
8463;DHT22;4268;52.506;13.462;2023-03-20T14:04:53;13.10;99.90
8463;DHT22;4268;52.506;13.462;2023-03-20T14:07:35;13.10;99.90
8463;DHT22;4268;52.506;13.462;2023-03-20T14:12:48;12.90;99.90
8463;DHT22;4268;52.506;13.462;2023-03-20T14:15:14;12.90;99.90
8463;DHT22;4268;52.506;13.462;2023-03-20T14:17:44;12.90;99.90
8463;DHT22;4268;52.506;13.462;2023-03-20T14:20:19;12.80;99.90
8463;DHT22;4268;52.506;13.462;2023-03-20T14:22:49;12.80;99.90
8463;DHT22;4268;52.506;13.462;2023-03-20T14:25:18;12.70;99.90
8463;DHT22;4268;52.506;13.462;2023-03-20T14:35:47;12.70;99.90
8463;DHT22;4268;52.506;13.462;2023-03-20T14:38:33;12.70;99.90
8463;DHT22;4268;52.506;13.462;2023-03-20T14:41:15;12.70;99.90
8463;DHT22;4268;52.506;13.462;2023-03-20T14:44:14;12.60;99.90
8463;DHT22;4268;52.506;13.462;2023-03-20T14:46:50;12.50;99.90
8463;DHT22;4268;52.506;13.462;2023-03-20T14:54:54;12.40;99.90
8463;DHT22;4268;52.506;13.462;2023-03-20T14:57:31;12.40;99.90
8463;DHT22;4268;52.506;13.462;2023-03-20T14:59:57;12.40;99.90
8463;DHT22;4268;52.506;13.462;2023-03-20T15:02:28;12.30;99.90
8463;DHT22;4268;52.506;13.462;2023-03-20T15:04:54;12.30;99.90
8463;DHT22;4268;52.506;13.462;2023-03-20T15:07:24;12.40;99.90
8463;DHT22;4268;52.506;13.462;2023-03-20T15:09:54;12.40;99.90
8463;DHT22;4268;52.506;13.462;2023-03-20T15:12:25;12.30;99.90
8463;DHT22;4268;52.506;13.462;2023-03-20T15:15:22;12.30;99.90
8463;DHT22;4268;52.506;13.462;2023-03-20T15:17:48;12.30;99.90
8463;DHT22;4268;52.506;13.462;2023-03-20T15:20:20;12.20;99.90
8463;DHT22;4268;52.506;13.462;2023-03-20T15:22:54;12.20;99.90
8463;DHT22;4268;52.506;13.462;2023-03-20T15:25:23;12.20;99.90
8463;DHT22;4268;52.506;13.462;2023-03-20T15:27:49;12.20;99.90
8463;DHT22;4268;52.506;13.462;2023-03-20T15:30:19;12.20;99.90
8463;DHT22;4268;52.506;13.462;2023-03-20T15:32:47;12.30;99.90
8463;DHT22;4268;52.506;13.462;2023-03-20T15:35:16;12.30;99.90
8463;DHT22;4268;52.506;13.462;2023-03-20T15:37:44;12.30;99.90
8463;DHT22;4268;52.506;13.462;2023-03-20T15:40:16;12.30;99.90
8463;DHT22;4268;52.506;13.462;2023-03-20T15:42:52;12.30;99.90
8463;DHT22;4268;52.506;13.462;2023-03-20T15:45:32;12.30;99.90
8463;DHT22;4268;52.506;13.462;2023-03-20T15:48:00;12.20;99.90
8463;DHT22;4268;52.506;13.462;2023-03-20T15:50:25;12.20;99.90
8463;DHT22;4268;52.506;13.462;2023-03-20T15:52:51;12.20;99.90
8463;DHT22;4268;52.506;13.462;2023-03-20T15:55:22;12.20;99.90
8463;DHT22;4268;52.506;13.462;2023-03-20T15:57:48;12.20;99.90
8463;DHT22;4268;52.506;13.462;2023-03-20T16:00:23;12.20;99.90
8463;DHT22;4268;52.506;13.462;2023-03-20T16:02:51;12.20;99.90
8463;DHT22;4268;52.506;13.462;2023-03-20T16:05:18;12.20;99.90
8463;DHT22;4268;52.506;13.462;2023-03-20T16:07:45;12.20;99.90
8463;DHT22;4268;52.506;13.462;2023-03-20T16:10:20;12.20;99.90
8463;DHT22;4268;52.506;13.462;2023-03-20T16:12:48;12.30;99.90
8463;DHT22;4268;52.506;13.462;2023-03-20T16:15:16;12.30;99.90
8463;DHT22;4268;52.506;13.462;2023-03-20T16:17:42;12.30;99.90
8463;DHT22;4268;52.506;13.462;2023-03-20T16:20:13;12.20;99.90
8463;DHT22;4268;52.506;13.462;2023-03-20T16:22:39;12.20;99.90
8463;DHT22;4268;52.506;13.462;2023-03-20T16:25:08;12.20;99.90
8463;DHT22;4268;52.506;13.462;2023-03-20T16:27:38;12.10;99.90
8463;DHT22;4268;52.506;13.462;2023-03-20T16:30:32;12.10;99.90
8463;DHT22;4268;52.506;13.462;2023-03-20T16:32:59;12.10;99.90
8463;DHT22;4268;52.506;13.462;2023-03-20T16:35:30;12.00;99.90
8463;DHT22;4268;52.506;13.462;2023-03-20T16:37:59;12.00;99.90
8463;DHT22;4268;52.506;13.462;2023-03-20T16:40:34;12.00;99.90
8463;DHT22;4268;52.506;13.462;2023-03-20T16:43:18;11.90;99.90
8463;DHT22;4268;52.506;13.462;2023-03-20T16:45:53;11.90;99.90
8463;DHT22;4268;52.506;13.462;2023-03-20T16:48:26;11.90;99.90
8463;DHT22;4268;52.506;13.462;2023-03-20T16:50:57;11.80;99.90
8463;DHT22;4268;52.506;13.462;2023-03-20T16:53:27;11.80;99.90
8463;DHT22;4268;52.506;13.462;2023-03-20T16:55:55;11.80;99.90
8463;DHT22;4268;52.506;13.462;2023-03-20T16:58:28;11.70;99.90
8463;DHT22;4268;52.506;13.462;2023-03-20T17:01:09;11.80;99.90
8463;DHT22;4268;52.506;13.462;2023-03-20T17:03:47;11.70;99.90
8463;DHT22;4268;52.506;13.462;2023-03-20T17:08:58;11.70;99.90
8463;DHT22;4268;52.506;13.462;2023-03-20T17:11:33;11.60;99.90
8463;DHT22;4268;52.506;13.462;2023-03-20T17:14:00;11.60;99.90
8463;DHT22;4268;52.506;13.462;2023-03-20T17:16:26;11.60;99.90
8463;DHT22;4268;52.506;13.462;2023-03-20T17:18:59;11.60;99.90
8463;DHT22;4268;52.506;13.462;2023-03-20T17:21:25;11.50;99.90
8463;DHT22;4268;52.506;13.462;2023-03-20T17:23:50;11.50;99.90
8463;DHT22;4268;52.506;13.462;2023-03-20T17:26:16;11.50;99.90
8463;DHT22;4268;52.506;13.462;2023-03-20T17:28:41;11.50;99.90
8463;DHT22;4268;52.506;13.462;2023-03-20T17:31:12;11.40;99.90
8463;DHT22;4268;52.506;13.462;2023-03-20T17:33:39;11.40;99.90
8463;DHT22;4268;52.506;13.462;2023-03-20T17:36:20;11.40;99.90
8463;DHT22;4268;52.506;13.462;2023-03-20T17:38:46;11.40;99.90
8463;DHT22;4268;52.506;13.462;2023-03-20T17:41:13;11.40;99.90
8463;DHT22;4268;52.506;13.462;2023-03-20T17:43:39;11.40;99.90
8463;DHT22;4268;52.506;13.462;2023-03-20T17:46:05;11.40;99.90